Time;durP1;ratioP1;P1;durP2;ratioP2;P2;SDS_P1;SDS_P2;PMS_P1;PMS_P2;Temp;Humidity;BMP_temperature;BMP_pressure;BME280_temperature;BME280_humidity;BME280_pressure;Samples;Min_cycle;Max_cycle;Signal;HPM_P1;HPM_P2
2023/12/11 00:00:46;;;;;;;1.70;0.43;;;;;;;9.02;95.71;94568.44;4977372;28;20221;-80
2023/12/11 00:03:11;;;;;;;0.30;0.30;;;;;;;9.03;95.24;94576.06;4981463;28;20200;-80
2023/12/11 00:05:39;;;;;;;0.63;0.50;;;;;;;9.14;94.98;94576.69;4961706;28;20204;-79
2023/12/11 00:08:06;;;;;;;0.67;0.40;;;;;;;9.13;94.77;94569.91;4976546;28;20219;-80
2023/12/11 00:10:31;;;;;;;0.40;0.40;;;;;;;9.17;94.51;94578.94;4976681;28;20184;-80
2023/12/11 00:12:56;;;;;;;1.27;0.60;;;;;;;9.03;95.43;94572.66;4986704;28;20188;-79
2023/12/11 00:15:22;;;;;;;1.03;0.40;;;;;;;9.07;95.84;94574.75;4971026;28;20199;-79
2023/12/11 00:17:47;;;;;;;0.40;0.40;;;;;;;9.01;96.15;94564.22;4978750;28;20191;-79
2023/12/11 00:20:12;;;;;;;3.30;0.50;;;;;;;8.94;97.44;94560.69;4977474;28;20191;-80
2023/12/11 00:22:38;;;;;;;0.53;0.40;;;;;;;8.92;97.53;94580.72;4976144;28;20259;-80
2023/12/11 00:25:04;;;;;;;0.40;0.40;;;;;;;8.99;97.71;94581.69;4991812;28;20347;-79
2023/12/11 00:27:30;;;;;;;0.67;0.30;;;;;;;8.98;98.27;94580.09;4993368;28;20207;-80
2023/12/11 00:29:55;;;;;;;0.97;0.30;;;;;;;9.01;97.78;94574.56;4991598;28;20269;-79
2023/12/11 00:32:20;;;;;;;0.50;0.50;;;;;;;9.04;98.16;94576.88;4992578;28;20200;-80
2023/12/11 00:34:46;;;;;;;0.60;0.40;;;;;;;9.08;98.05;94572.97;4978111;28;20203;-80
2023/12/11 00:37:11;;;;;;;0.30;0.30;;;;;;;9.16;96.92;94562.59;4993777;28;20194;-80
2023/12/11 00:39:36;;;;;;;0.30;0.30;;;;;;;9.14;97.15;94566.34;4989363;28;20209;-80
2023/12/11 00:42:02;;;;;;;0.43;0.40;;;;;;;9.21;96.37;94582.84;4976251;28;20327;-79
2023/12/11 00:44:27;;;;;;;0.63;0.60;;;;;;;9.13;96.71;94591.44;4994107;28;20262;-80
2023/12/11 00:46:53;;;;;;;0.83;0.30;;;;;;;9.13;96.04;94578.47;4991594;28;20247;-80
2023/12/11 00:49:18;;;;;;;0.40;0.30;;;;;;;9.04;96.30;94588.03;4992725;28;20203;-80
2023/12/11 00:51:43;;;;;;;1.20;0.50;;;;;;;9.12;95.94;94596.78;4959034;28;20638;-80
2023/12/11 00:54:09;;;;;;;0.40;0.40;;;;;;;9.26;95.08;94604.69;4973255;28;20579;-80
2023/12/11 00:56:34;;;;;;;0.70;0.50;;;;;;;9.21;94.94;94606.16;4992595;28;20271;-79
2023/12/11 00:59:00;;;;;;;0.63;0.50;;;;;;;9.28;94.54;94607.94;4990164;28;20674;-79
2023/12/11 01:01:25;;;;;;;0.50;0.47;;;;;;;9.26;95.13;94604.69;4994460;28;20191;-80
2023/12/11 01:03:50;;;;;;;0.70;0.60;;;;;;;9.38;94.18;94609.56;4995507;28;20636;-80
2023/12/11 01:06:16;;;;;;;2.23;0.60;;;;;;;9.39;94.07;94601.63;4982973;28;20192;-80
2023/12/11 01:08:41;;;;;;;0.63;0.47;;;;;;;9.22;94.99;94611.19;4967985;28;20180;-80
2023/12/11 01:11:07;;;;;;;0.53;0.50;;;;;;;9.35;94.26;94606.31;4982814;28;20698;-80
2023/12/11 01:13:32;;;;;;;1.17;0.60;;;;;;;9.25;95.53;94600.47;4992037;28;20183;-80
2023/12/11 01:15:58;;;;;;;0.77;0.50;;;;;;;9.36;95.29;94591.56;4973265;28;20251;-80
2023/12/11 01:18:24;;;;;;;0.60;0.53;;;;;;;9.40;95.21;94592.88;4975027;28;20207;-80
2023/12/11 01:20:50;;;;;;;2.70;0.53;;;;;;;9.42;95.76;94585.75;4993309;28;20665;-79
2023/12/11 01:23:15;;;;;;;1.67;0.70;;;;;;;9.57;94.41;94588.47;4975579;28;20200;-80
2023/12/11 01:25:41;;;;;;;2.10;0.50;;;;;;;9.36;95.48;94594.16;4974894;28;20199;-80
2023/12/11 01:28:06;;;;;;;1.23;0.60;;;;;;;9.40;94.85;94599.84;4975119;28;20195;-79
2023/12/11 01:30:32;;;;;;;1.07;0.50;;;;;;;9.39;95.54;94585.28;4990325;28;20602;-80
2023/12/11 01:32:57;;;;;;;1.23;0.53;;;;;;;9.40;95.36;94594.66;4975746;28;20192;-79
2023/12/11 01:35:22;;;;;;;0.50;0.40;;;;;;;9.48;94.78;94594.66;4996451;28;20203;-79
2023/12/11 01:37:48;;;;;;;0.53;0.50;;;;;;;9.39;94.67;94590.44;4991101;28;20331;-79
2023/12/11 01:40:13;;;;;;;0.70;0.60;;;;;;;9.47;94.67;94598.22;4990601;28;20199;-79
2023/12/11 01:42:38;;;;;;;0.60;0.40;;;;;;;9.35;95.22;94590.75;4976200;28;20273;-79
2023/12/11 01:45:04;;;;;;;0.50;0.50;;;;;;;9.32;95.00;94601.47;4995037;28;20256;-79
2023/12/11 01:47:30;;;;;;;0.73;0.60;;;;;;;9.29;95.18;94595.81;4994700;28;20183;-79
2023/12/11 01:49:57;;;;;;;0.97;0.53;;;;;;;9.25;94.83;94586.72;4979508;28;20187;-80
2023/12/11 01:52:23;;;;;;;0.87;0.50;;;;;;;9.19;93.82;94575.25;4978453;28;20214;-79
2023/12/11 01:54:48;;;;;;;1.20;0.50;;;;;;;9.05;94.06;94576.69;4995248;28;20207;-79
2023/12/11 01:57:13;;;;;;;0.57;0.40;;;;;;;9.16;93.15;94579.94;4981325;28;20215;-79
2023/12/11 01:59:39;;;;;;;0.77;0.40;;;;;;;9.15;93.03;94573.94;4998213;28;20758;-79
2023/12/11 02:02:04;;;;;;;0.40;0.40;;;;;;;8.99;93.27;94592.06;4966163;28;20196;-79
2023/12/11 02:04:30;;;;;;;1.13;0.63;;;;;;;9.05;93.06;94594.00;4997917;28;20212;-80
2023/12/11 02:06:56;;;;;;;1.90;0.60;;;;;;;9.13;93.02;94583.66;4976584;28;20573;-80
2023/12/11 02:09:22;;;;;;;0.47;0.47;;;;;;;9.18;92.53;94594.31;4994738;28;20190;-80
2023/12/11 02:11:47;;;;;;;0.70;0.30;;;;;;;9.13;93.22;94586.25;4994933;28;20211;-79
2023/12/11 02:14:12;;;;;;;2.33;0.63;;;;;;;9.05;94.75;94604.38;4962343;28;20218;-80
2023/12/11 02:16:38;;;;;;;1.27;0.33;;;;;;;9.24;94.52;94598.88;4963040;28;20217;-79
2023/12/11 02:19:03;;;;;;;0.60;0.60;;;;;;;9.26;94.78;94586.56;4962356;28;20212;-78
2023/12/11 02:21:28;;;;;;;1.07;0.50;;;;;;;9.16;95.57;94560.00;4979408;28;20192;-80
2023/12/11 02:24:14;;;;;;;1.53;0.40;;;;;;;9.28;95.09;94569.09;4994378;28;20227;-79
2023/12/11 02:26:39;;;;;;;0.93;0.70;;;;;;;9.20;95.48;94576.88;4977800;28;20199;-79
2023/12/11 02:29:05;;;;;;;1.10;0.40;;;;;;;9.24;95.67;94583.31;4976624;28;20195;-79
2023/12/11 02:31:30;;;;;;;1.50;0.70;;;;;;;9.21;95.87;94575.88;4973562;28;20240;-79
2023/12/11 02:33:56;;;;;;;0.60;0.60;;;;;;;9.23;95.75;94580.91;4997693;28;20221;-79
2023/12/11 02:36:21;;;;;;;2.87;0.60;;;;;;;9.39;94.38;94583.50;4987872;28;20191;-79
2023/12/11 02:38:46;;;;;;;1.57;0.60;;;;;;;9.22;95.76;94584.47;4977846;28;20215;-79
2023/12/11 02:41:12;;;;;;;1.53;0.50;;;;;;;9.22;96.25;94587.06;4993575;28;20240;-81
2023/12/11 02:43:37;;;;;;;0.63;0.40;;;;;;;9.14;96.90;94593.03;4995819;28;20191;-79
2023/12/11 02:46:03;;;;;;;3.47;0.50;;;;;;;9.26;96.38;94591.75;4994596;28;20184;-79
2023/12/11 02:48:29;;;;;;;0.83;0.40;;;;;;;9.28;97.30;94587.22;4987060;28;20187;-80
2023/12/11 02:50:54;;;;;;;1.00;0.50;;;;;;;9.37;96.51;94580.25;4975752;28;20184;-80
2023/12/11 02:53:20;;;;;;;0.30;0.30;;;;;;;9.14;97.48;94587.06;4977256;28;20187;-80
2023/12/11 02:55:45;;;;;;;0.30;0.30;;;;;;;9.28;97.02;94576.88;4977499;28;20779;-79
2023/12/11 02:58:10;;;;;;;0.57;0.40;;;;;;;9.31;96.65;94576.53;4994707;28;20215;-79
2023/12/11 03:00:36;;;;;;;0.33;0.33;;;;;;;9.27;97.29;94567.44;4995189;28;20191;-80
2023/12/11 03:03:01;;;;;;;0.27;0.27;;;;;;;9.11;99.17;94566.66;4980850;28;20561;-80
2023/12/11 03:05:27;;;;;;;0.57;0.43;;;;;;;9.32;97.47;94569.56;4993694;28;20203;-81
2023/12/11 03:07:52;;;;;;;1.43;0.30;;;;;;;9.38;97.49;94565.53;4977231;28;20195;-80
2023/12/11 03:10:18;;;;;;;1.23;0.30;;;;;;;9.33;97.50;94569.41;4961985;28;20257;-79
2023/12/11 03:12:43;;;;;;;0.20;0.20;;;;;;;9.36;97.73;94573.44;4993857;28;20200;-79
2023/12/11 03:15:09;;;;;;;0.30;0.30;;;;;;;9.38;97.79;94573.28;4996517;28;20274;-79
2023/12/11 03:17:35;;;;;;;0.30;0.30;;;;;;;9.47;97.02;94569.72;4960736;28;20782;-80
2023/12/11 03:20:00;;;;;;;0.60;0.50;;;;;;;9.39;98.01;94572.31;4961426;28;20231;-80
2023/12/11 03:22:26;;;;;;;0.77;0.40;;;;;;;9.24;98.94;94572.97;4993401;28;20868;-79
2023/12/11 03:24:52;;;;;;;0.50;0.40;;;;;;;9.37;98.15;94569.91;4992772;28;20589;-80
2023/12/11 03:27:20;;;;;;;1.13;0.50;;;;;;;9.24;98.72;94566.97;4966569;28;20198;-80
2023/12/11 03:29:45;;;;;;;1.43;0.57;;;;;;;9.35;98.39;94564.84;4973569;28;20188;-79
2023/12/11 03:32:11;;;;;;;0.40;0.40;;;;;;;9.33;98.45;94561.63;4973624;28;20204;-79
2023/12/11 03:34:36;;;;;;;0.40;0.40;;;;;;;9.34;98.32;94552.88;4995743;28;20711;-78
2023/12/11 03:37:01;;;;;;;0.73;0.30;;;;;;;9.41;97.82;94544.44;4982990;28;20206;-80
2023/12/11 03:39:27;;;;;;;0.60;0.50;;;;;;;9.35;98.66;94544.13;4977635;28;20215;-80
2023/12/11 03:41:52;;;;;;;0.30;0.30;;;;;;;9.40;98.36;94545.44;4977469;28;20191;-80
2023/12/11 03:44:18;;;;;;;1.33;0.40;;;;;;;9.44;97.93;94541.53;4993936;28;20261;-80
2023/12/11 03:46:43;;;;;;;0.57;0.40;;;;;;;9.50;97.61;94538.28;4960682;28;20192;-80
2023/12/11 03:49:08;;;;;;;0.40;0.40;;;;;;;9.41;97.85;94528.91;4958901;28;20188;-80
2023/12/11 03:51:34;;;;;;;0.87;0.40;;;;;;;9.33;97.29;94537.50;4975828;28;20531;-80
2023/12/11 03:54:00;;;;;;;0.50;0.50;;;;;;;9.42;96.62;94528.72;4977142;28;20211;-79
2023/12/11 03:56:26;;;;;;;0.40;0.40;;;;;;;9.46;96.13;94518.88;4993119;28;20544;-79
2023/12/11 03:58:52;;;;;;;0.30;0.30;;;;;;;9.44;95.90;94516.41;4992199;28;20246;-80
2023/12/11 04:01:17;;;;;;;0.57;0.43;;;;;;;9.42;95.52;94525.34;4971112;28;20223;-80
2023/12/11 04:03:42;;;;;;;1.13;0.50;;;;;;;9.39;96.13;94518.72;4994771;28;20243;-79
2023/12/11 04:06:08;;;;;;;1.83;0.40;;;;;;;9.43;95.43;94514.00;4974035;28;20187;-80
2023/12/11 04:08:38;;;;;;;1.60;0.70;;;;;;;9.49;94.60;94513.34;4960259;28;20194;-79
2023/12/11 04:11:03;;;;;;;1.50;0.80;;;;;;;9.43;94.88;94526.94;4983552;28;20183;-79
2023/12/11 04:13:29;;;;;;;1.97;0.80;;;;;;;9.39;94.98;94536.84;4993123;28;20559;-80
2023/12/11 04:15:54;;;;;;;2.73;0.67;;;;;;;9.35;94.44;94531.16;4977032;28;20603;-80
2023/12/11 04:18:20;;;;;;;1.00;0.67;;;;;;;9.42;94.24;94551.25;4975738;28;20211;-79
2023/12/11 04:20:45;;;;;;;4.20;0.80;;;;;;;9.40;93.96;94545.44;4994288;28;20195;-80
2023/12/11 04:23:10;;;;;;;1.10;0.70;;;;;;;9.47;93.29;94541.22;4975278;28;20716;-79
2023/12/11 04:25:36;;;;;;;1.07;0.50;;;;;;;9.38;92.79;94547.38;4979657;28;20334;-80
2023/12/11 04:28:01;;;;;;;1.13;0.70;;;;;;;9.29;92.96;94559.53;4991890;28;20207;-81
2023/12/11 04:30:26;;;;;;;1.07;0.63;;;;;;;9.29;92.91;94538.81;4992716;28;20203;-79
2023/12/11 04:32:52;;;;;;;0.70;0.47;;;;;;;9.28;92.49;94538.00;4994102;28;20294;-80
2023/12/11 04:35:17;;;;;;;0.87;0.60;;;;;;;9.35;91.51;94548.50;4978548;28;20587;-80
2023/12/11 04:37:43;;;;;;;1.03;0.60;;;;;;;9.27;91.80;94551.91;4976768;28;20241;-80
2023/12/11 04:40:08;;;;;;;1.23;0.60;;;;;;;9.21;91.95;94544.81;4992183;28;20302;-80
2023/12/11 04:42:34;;;;;;;2.10;0.80;;;;;;;9.32;90.96;94543.66;4973606;28;20563;-80
2023/12/11 04:44:59;;;;;;;1.37;0.70;;;;;;;9.17;91.00;94520.19;4959843;28;20214;-80
2023/12/11 04:47:24;;;;;;;0.60;0.60;;;;;;;9.35;89.49;94509.63;4980920;28;20184;-80
2023/12/11 04:49:50;;;;;;;2.03;0.53;;;;;;;9.13;90.59;94520.69;5005113;28;20187;-79
2023/12/11 04:52:17;;;;;;;1.53;0.50;;;;;;;9.14;90.09;94509.34;4983615;28;20235;-78
2023/12/11 04:54:42;;;;;;;4.27;0.80;;;;;;;9.05;90.50;94491.22;4999278;28;20224;-79
2023/12/11 04:57:08;;;;;;;2.90;0.70;;;;;;;9.05;90.08;94503.38;4996192;28;20188;-79
2023/12/11 04:59:33;;;;;;;1.57;0.60;;;;;;;9.25;89.02;94494.28;4972785;28;20693;-79
2023/12/11 05:01:58;;;;;;;2.70;0.60;;;;;;;9.06;90.04;94499.81;4977660;28;20183;-78
2023/12/11 05:04:24;;;;;;;2.20;0.70;;;;;;;9.11;89.83;94505.31;4977921;28;20291;-79
2023/12/11 05:06:49;;;;;;;1.10;0.50;;;;;;;9.05;89.97;94506.78;4974635;28;20191;-80
2023/12/11 05:09:14;;;;;;;0.87;0.50;;;;;;;9.09;89.57;94510.63;4991227;28;20228;-79
2023/12/11 05:11:40;;;;;;;3.93;0.80;;;;;;;9.09;89.12;94507.25;4975949;28;20194;-80
2023/12/11 05:14:05;;;;;;;1.80;0.90;;;;;;;9.07;89.78;94524.72;4992065;28;20210;-80
2023/12/11 05:16:31;;;;;;;1.10;0.60;;;;;;;9.15;88.85;94514.38;4975841;28;20198;-79
2023/12/11 05:18:56;;;;;;;2.20;0.90;;;;;;;9.07;89.60;94504.00;4974706;28;20697;-80
2023/12/11 05:21:22;;;;;;;1.70;0.60;;;;;;;9.16;88.79;94482.31;4994381;28;20546;-80
2023/12/11 05:23:47;;;;;;;1.53;0.60;;;;;;;9.02;89.50;94496.75;4993594;28;20202;-80
2023/12/11 05:26:19;;;;;;;0.97;0.70;;;;;;;9.06;89.07;94494.63;4974253;28;20274;-79
2023/12/11 05:28:44;;;;;;;0.50;0.50;;;;;;;9.09;88.92;94476.97;4966174;28;20184;-80
2023/12/11 05:31:09;;;;;;;0.60;0.40;;;;;;;9.18;88.07;94480.34;4990334;28;20221;-79
2023/12/11 05:33:35;;;;;;;1.87;0.97;;;;;;;9.17;87.95;94483.13;4976630;28;20180;-79
2023/12/11 05:36:00;;;;;;;0.43;0.43;;;;;;;9.04;88.39;94468.09;4991452;28;20183;-78
2023/12/11 05:38:25;;;;;;;1.43;0.60;;;;;;;9.00;88.25;94462.41;4958754;28;20199;-79
2023/12/11 05:40:51;;;;;;;1.43;0.50;;;;;;;9.13;87.44;94461.13;4976971;28;20554;-77
2023/12/11 05:43:16;;;;;;;0.57;0.53;;;;;;;9.17;87.03;94476.16;4975338;28;20192;-78
2023/12/11 05:45:41;;;;;;;1.43;0.50;;;;;;;9.08;87.22;94487.50;4975827;28;20211;-78
2023/12/11 05:48:07;;;;;;;0.63;0.50;;;;;;;9.21;86.91;94495.59;4974445;28;20196;-79
2023/12/11 05:50:33;;;;;;;0.60;0.60;;;;;;;9.08;87.11;94513.41;4991396;28;20338;-78
2023/12/11 05:52:58;;;;;;;2.23;0.80;;;;;;;9.06;86.88;94508.38;4973490;28;20250;-79
2023/12/11 05:55:23;;;;;;;2.83;0.77;;;;;;;9.08;86.81;94516.00;4973406;28;20294;-79
2023/12/11 05:57:49;;;;;;;3.30;1.00;;;;;;;9.03;86.62;94518.28;4990940;28;20191;-78
2023/12/11 06:00:14;;;;;;;1.40;0.60;;;;;;;9.01;86.50;94512.44;4992667;28;20741;-79
2023/12/11 06:02:40;;;;;;;2.17;0.77;;;;;;;9.06;85.72;94499.81;4962883;28;20247;-79
2023/12/11 06:05:06;;;;;;;1.37;0.60;;;;;;;8.98;85.73;94495.44;4991589;28;20784;-79
2023/12/11 06:07:32;;;;;;;2.83;0.70;;;;;;;8.95;85.89;94490.59;4989996;28;20191;-78
2023/12/11 06:09:57;;;;;;;2.87;0.80;;;;;;;8.96;85.32;94486.22;4958927;28;20223;-80
2023/12/11 06:12:23;;;;;;;2.40;0.90;;;;;;;9.05;85.07;94480.88;4992797;28;20593;-78
2023/12/11 06:14:48;;;;;;;2.63;0.80;;;;;;;9.00;84.95;94493.50;4976539;28;20208;-78
2023/12/11 06:17:14;;;;;;;2.47;0.70;;;;;;;9.01;84.35;94510.69;4990020;28;20627;-79
2023/12/11 06:19:42;;;;;;;3.07;0.70;;;;;;;8.93;84.86;94507.28;4966258;28;20226;-79
2023/12/11 06:22:08;;;;;;;2.00;0.97;;;;;;;8.99;84.58;94517.78;4982784;28;20200;-79
2023/12/11 06:24:33;;;;;;;1.03;0.80;;;;;;;8.91;85.02;94509.19;4980196;28;20215;-79
2023/12/11 06:26:59;;;;;;;3.53;1.40;;;;;;;8.97;84.36;94505.97;4989482;28;20214;-79
2023/12/11 06:29:24;;;;;;;2.73;0.80;;;;;;;8.97;84.07;94505.97;4980381;28;20204;-78
2023/12/11 06:31:49;;;;;;;0.97;0.70;;;;;;;8.77;85.31;94490.78;4977723;28;20219;-78
2023/12/11 06:34:15;;;;;;;2.30;0.60;;;;;;;8.72;85.15;94482.66;4962757;28;20215;-79
2023/12/11 06:36:40;;;;;;;1.63;0.53;;;;;;;8.82;84.59;94458.41;4985882;28;20538;-79
2023/12/11 06:39:05;;;;;;;0.80;0.60;;;;;;;8.72;84.78;94446.44;4960307;28;20238;-78
2023/12/11 06:41:35;;;;;;;3.07;0.63;;;;;;;8.87;84.22;94461.31;4978153;28;20214;-80
2023/12/11 06:44:00;;;;;;;2.10;1.00;;;;;;;8.72;84.50;94469.72;4972042;28;20267;-80
2023/12/11 06:46:28;;;;;;;4.73;0.90;;;;;;;8.90;84.18;94479.09;4962493;28;20192;-79
2023/12/11 06:48:55;;;;;;;2.53;0.57;;;;;;;8.85;84.22;94502.91;4975733;28;20179;-79
2023/12/11 06:51:20;;;;;;;3.93;0.77;;;;;;;8.83;84.30;94496.25;4969051;28;20950;-80
2023/12/11 06:53:46;;;;;;;1.67;0.60;;;;;;;8.86;84.28;94491.59;4974888;28;20327;-79
2023/12/11 06:56:20;;;;;;;1.40;0.67;;;;;;;8.86;83.72;94489.00;4960362;28;20215;-79
2023/12/11 06:58:46;;;;;;;3.77;1.37;;;;;;;8.86;83.66;94488.19;4988447;28;20203;-79
2023/12/11 07:01:12;;;;;;;2.60;1.00;;;;;;;8.88;83.46;94487.03;4996621;28;20202;-80
2023/12/11 07:03:40;;;;;;;1.63;0.60;;;;;;;9.04;82.82;94481.84;4979630;28;20213;-80
2023/12/11 07:06:05;;;;;;;1.43;0.50;;;;;;;9.00;82.91;94477.97;4975612;28;20184;-80
2023/12/11 07:08:31;;;;;;;1.50;0.60;;;;;;;9.01;83.00;94486.53;4995251;28;20611;-80
2023/12/11 07:10:56;;;;;;;1.50;0.57;;;;;;;8.93;83.36;94502.09;4992977;28;20203;-80
2023/12/11 07:13:21;;;;;;;0.70;0.43;;;;;;;9.00;82.74;94496.09;4993503;28;20188;-79
2023/12/11 07:15:47;;;;;;;1.73;0.57;;;;;;;9.13;82.32;94493.00;4979860;28;20271;-80
2023/12/11 07:18:13;;;;;;;1.53;0.50;;;;;;;9.18;82.22;94495.91;4961229;28;20187;-79
2023/12/11 07:20:40;;;;;;;3.00;0.93;;;;;;;8.97;83.43;94496.41;4978708;28;20246;-79
2023/12/11 07:23:07;;;;;;;1.87;0.80;;;;;;;9.09;82.69;94491.69;4994331;28;20214;-80
2023/12/11 07:25:33;;;;;;;2.07;0.70;;;;;;;9.13;82.35;94490.41;4992688;28;20233;-78
2023/12/11 07:27:59;;;;;;;0.40;0.40;;;;;;;9.17;82.49;94496.06;4995845;28;20247;-78
2023/12/11 07:30:24;;;;;;;1.57;0.77;;;;;;;9.01;82.51;94471.00;4966543;28;20228;-79
2023/12/11 07:32:50;;;;;;;1.80;0.50;;;;;;;9.40;81.46;94467.69;4978502;28;20188;-79
2023/12/11 07:35:15;;;;;;;1.37;0.77;;;;;;;9.31;81.39;94472.91;4973097;28;20271;-80
2023/12/11 07:37:43;;;;;;;2.53;1.00;;;;;;;9.12;82.20;94460.31;4995543;28;20219;-78
2023/12/11 07:40:09;;;;;;;2.57;0.70;;;;;;;9.21;82.16;94479.25;4993095;28;20264;-79
2023/12/11 07:42:35;;;;;;;3.37;0.77;;;;;;;9.34;81.75;94469.16;4975830;28;20670;-79
2023/12/11 07:45:04;;;;;;;2.77;0.80;;;;;;;9.26;81.85;94482.13;4992788;28;20302;-79
2023/12/11 07:47:30;;;;;;;3.90;1.00;;;;;;;9.36;81.11;94473.22;4960078;28;20243;-79
2023/12/11 07:49:56;;;;;;;1.33;0.70;;;;;;;9.52;80.70;94500.84;4993455;28;20254;-79
2023/12/11 07:52:21;;;;;;;1.20;0.70;;;;;;;9.39;81.17;94503.16;4959573;28;20248;-80
2023/12/11 07:54:47;;;;;;;0.60;0.60;;;;;;;9.28;81.64;94503.53;4977034;28;20203;-80
2023/12/11 07:57:12;;;;;;;2.40;0.70;;;;;;;9.22;82.13;94522.28;4976335;28;20334;-79
2023/12/11 07:59:37;;;;;;;3.30;0.70;;;;;;;9.25;81.88;94538.31;4975589;28;20212;-79
2023/12/11 08:02:03;;;;;;;2.07;0.90;;;;;;;9.41;81.18;94526.31;4991926;28;20243;-80
2023/12/11 08:04:29;;;;;;;1.90;0.80;;;;;;;9.36;81.31;94535.41;4997055;28;20214;-80
2023/12/11 08:06:54;;;;;;;3.93;1.00;;;;;;;9.52;80.03;94544.91;4976412;28;20692;-80
2023/12/11 08:09:19;;;;;;;2.37;1.27;;;;;;;9.78;79.50;94529.13;4973584;28;20187;-81
2023/12/11 08:11:45;;;;;;;1.00;0.80;;;;;;;9.72;79.89;94532.41;4976535;28;20195;-80
2023/12/11 08:14:11;;;;;;;2.77;0.60;;;;;;;9.76;79.48;94528.47;4992339;28;20216;-78
2023/12/11 08:16:36;;;;;;;2.77;0.73;;;;;;;9.46;79.10;94516.28;4975533;28;20231;-79
2023/12/11 08:19:01;;;;;;;1.67;0.73;;;;;;;9.79;78.87;94504.00;4993938;28;20693;-78
2023/12/11 08:21:27;;;;;;;1.37;1.10;;;;;;;9.66;79.02;94499.34;4976749;28;20219;-79
2023/12/11 08:23:53;;;;;;;2.83;1.30;;;;;;;9.64;79.07;94503.91;4975985;28;20575;-79
2023/12/11 08:26:19;;;;;;;2.30;1.90;;;;;;;9.78;78.63;94508.38;4976442;28;20270;-79
2023/12/11 08:28:44;;;;;;;9.23;8.27;;;;;;;9.79;78.51;94510.00;4962183;28;20181;-77
2023/12/11 08:31:10;;;;;;;4.77;3.20;;;;;;;9.60;78.43;94511.19;4974561;28;20188;-80
2023/12/11 08:33:36;;;;;;;2.67;1.00;;;;;;;9.62;77.60;94500.66;4977639;28;20195;-80
2023/12/11 08:36:02;;;;;;;2.47;1.57;;;;;;;9.76;77.40;94493.97;4976417;28;20187;-78
2023/12/11 08:38:27;;;;;;;2.97;1.80;;;;;;;9.71;77.40;94504.84;4991967;28;20259;-78
2023/12/11 08:40:53;;;;;;;3.80;0.90;;;;;;;9.73;77.53;94502.91;4993625;28;20275;-79
2023/12/11 08:43:18;;;;;;;3.60;1.10;;;;;;;9.72;77.42;94496.09;4995498;28;20219;-79
2023/12/11 08:45:44;;;;;;;6.03;1.90;;;;;;;9.79;77.38;94502.22;4977366;28;20203;-79
2023/12/11 08:48:09;;;;;;;2.83;0.80;;;;;;;9.78;76.79;94510.97;4960540;28;20196;-79
2023/12/11 08:50:35;;;;;;;2.37;1.13;;;;;;;10.01;76.42;94518.03;4983873;28;20179;-79
2023/12/11 08:53:01;;;;;;;2.87;1.47;;;;;;;9.90;76.82;94527.78;4990990;28;20243;-79
2023/12/11 08:55:27;;;;;;;0.93;0.63;;;;;;;10.04;76.13;94522.88;4969446;28;20320;-79
2023/12/11 08:57:53;;;;;;;2.20;0.67;;;;;;;9.89;76.38;94505.44;4977586;28;20281;-79
2023/12/11 09:00:18;;;;;;;12.50;8.50;;;;;;;10.17;75.43;94523.13;4992097;28;20216;-79
2023/12/11 09:02:44;;;;;;;4.77;2.60;;;;;;;10.17;75.79;94533.53;4993055;28;20218;-78
2023/12/11 09:05:09;;;;;;;7.10;4.40;;;;;;;10.02;76.44;94532.59;4972830;28;20217;-78
2023/12/11 09:07:34;;;;;;;8.23;6.23;;;;;;;10.13;75.12;94532.22;4993880;28;20183;-77
2023/12/11 09:10:00;;;;;;;2.80;0.90;;;;;;;10.12;74.87;94531.41;4978613;28;20567;-78
2023/12/11 09:12:26;;;;;;;2.03;0.97;;;;;;;10.29;74.74;94529.59;4992173;28;20187;-78
2023/12/11 09:14:52;;;;;;;3.20;1.10;;;;;;;10.26;74.60;94519.56;4975045;28;20733;-77
2023/12/11 09:17:18;;;;;;;2.77;0.80;;;;;;;10.24;74.22;94541.44;4977713;28;20207;-78
2023/12/11 09:19:43;;;;;;;1.47;0.80;;;;;;;10.19;74.00;94541.94;4981332;28;20273;-79
2023/12/11 09:22:09;;;;;;;3.23;0.80;;;;;;;10.13;74.01;94550.38;4975746;28;20626;-78
2023/12/11 09:24:34;;;;;;;4.37;1.00;;;;;;;10.05;74.76;94559.00;4991389;28;20216;-79
2023/12/11 09:27:00;;;;;;;1.53;0.50;;;;;;;10.06;74.90;94552.84;4969361;28;20184;-82
2023/12/11 09:29:25;;;;;;;5.57;1.20;;;;;;;10.14;74.22;94562.38;4977049;28;20544;-79
2023/12/11 09:31:51;;;;;;;5.30;1.10;;;;;;;10.03;74.06;94562.75;4993889;28;20223;-79
2023/12/11 09:34:17;;;;;;;1.70;1.00;;;;;;;10.02;74.47;94567.13;4959555;28;20216;-79
2023/12/11 09:36:42;;;;;;;4.17;1.30;;;;;;;10.18;74.09;94556.69;4980939;28;20192;-79
2023/12/11 09:39:08;;;;;;;4.90;1.77;;;;;;;10.35;73.53;94561.84;4976826;28;20214;-78
2023/12/11 09:41:34;;;;;;;3.73;1.30;;;;;;;10.23;73.85;94560.59;4976284;28;20194;-79
2023/12/11 09:44:04;;;;;;;4.20;1.20;;;;;;;10.49;73.59;94553.31;4988090;28;20311;-79
2023/12/11 09:46:32;;;;;;;3.37;1.57;;;;;;;10.63;73.33;94560.38;4987375;28;20200;-79
2023/12/11 09:48:58;;;;;;;3.97;1.60;;;;;;;10.80;72.80;94562.88;4981463;28;20192;-79
2023/12/11 09:51:23;;;;;;;4.47;1.20;;;;;;;10.61;71.73;94549.38;4989117;28;20195;-79
2023/12/11 09:53:52;;;;;;;4.73;1.60;;;;;;;10.85;71.78;94557.94;4992670;28;20223;-79
2023/12/11 09:56:18;;;;;;;5.33;1.50;;;;;;;10.88;71.46;94557.63;4990991;28;20192;-79
2023/12/11 09:58:44;;;;;;;2.63;1.00;;;;;;;10.77;72.39;94551.84;4973831;28;20261;-78
2023/12/11 10:01:11;;;;;;;2.20;1.30;;;;;;;10.72;72.15;94548.97;4975615;28;20772;-78
2023/12/11 10:03:37;;;;;;;3.77;1.53;;;;;;;10.45;72.40;94557.25;4989895;28;20202;-79
2023/12/11 10:06:05;;;;;;;12.67;5.60;;;;;;;10.57;72.95;94550.66;4976341;28;20179;-78
2023/12/11 10:08:39;;;;;;;15.40;8.00;;;;;;;10.60;72.94;94559.91;4994287;28;20180;-79
2023/12/11 10:11:13;;;;;;;3.80;1.90;;;;;;;10.34;73.52;94555.03;4976687;28;20704;-79
2023/12/11 10:13:39;;;;;;;4.00;1.40;;;;;;;10.73;72.99;94552.38;4979005;28;20283;-79
2023/12/11 10:16:06;;;;;;;4.30;1.40;;;;;;;10.67;72.68;94550.44;4996343;28;20227;-79
2023/12/11 10:18:31;;;;;;;4.87;1.37;;;;;;;11.00;72.00;94549.25;4976452;28;20231;-79
2023/12/11 10:20:58;;;;;;;4.77;1.20;;;;;;;10.92;71.58;94540.69;4997537;28;20663;-78
2023/12/11 10:23:23;;;;;;;3.77;1.20;;;;;;;11.08;71.04;94548.38;4979070;28;20573;-78
2023/12/11 10:25:51;;;;;;;3.77;1.10;;;;;;;11.22;70.54;94531.19;4995558;28;20200;-79
2023/12/11 10:28:18;;;;;;;5.53;2.00;;;;;;;11.02;70.51;94543.88;4962939;28;20196;-78
2023/12/11 10:30:47;;;;;;;3.30;1.43;;;;;;;11.24;70.71;94530.06;4995906;28;20641;-78
2023/12/11 10:33:12;;;;;;;4.53;1.80;;;;;;;10.95;70.52;94546.34;4995535;28;20191;-78
2023/12/11 10:35:37;;;;;;;5.60;1.83;;;;;;;11.30;70.10;94533.72;4996749;28;20211;-77
2023/12/11 10:38:03;;;;;;;8.13;4.10;;;;;;;11.38;70.21;94535.44;4978403;28;20251;-77
2023/12/11 10:40:41;;;;;;;4.03;1.60;;;;;;;11.27;69.92;94537.47;4996386;28;20257;-77
2023/12/11 10:43:07;;;;;;;5.30;1.20;;;;;;;11.33;70.01;94551.56;4992215;28;20196;-78
2023/12/11 10:45:33;;;;;;;6.57;0.97;;;;;;;11.31;69.93;94554.34;4978570;28;20247;-80
2023/12/11 10:48:00;;;;;;;5.93;1.10;;;;;;;11.26;70.09;94546.25;4995863;28;20222;-77
2023/12/11 10:50:25;;;;;;;6.77;1.77;;;;;;;11.45;70.36;94567.53;4997826;28;20189;-77
2023/12/11 10:52:51;;;;;;;2.50;1.07;;;;;;;11.08;69.56;94558.75;4993790;28;20256;-79
2023/12/11 10:55:16;;;;;;;2.20;1.07;;;;;;;11.04;69.15;94540.13;4978141;28;20204;-79
2023/12/11 10:57:42;;;;;;;3.97;1.20;;;;;;;10.97;68.97;94549.59;4963506;28;20251;-78
2023/12/11 11:00:13;;;;;;;4.23;2.03;;;;;;;11.23;68.65;94548.41;4976827;28;20223;-79
2023/12/11 11:02:40;;;;;;;8.83;3.13;;;;;;;10.96;69.54;94541.97;4988226;28;20226;-79
2023/12/11 11:05:05;;;;;;;4.47;1.30;;;;;;;10.97;68.83;94551.38;4973582;28;20226;-79
2023/12/11 11:07:35;;;;;;;8.30;2.30;;;;;;;10.89;68.24;94559.25;4954712;28;20196;-79
2023/12/11 11:10:06;;;;;;;6.83;1.50;;;;;;;11.33;68.01;94551.56;4975406;28;20190;-79
2023/12/11 11:12:43;;;;;;;4.80;1.50;;;;;;;11.42;67.31;94545.31;4990328;28;20268;-78
2023/12/11 11:15:12;;;;;;;7.13;1.87;;;;;;;11.46;66.75;94554.38;4955222;28;20214;-78
2023/12/11 11:18:01;;;;;;;8.00;1.93;;;;;;;11.58;66.36;94560.78;4990006;28;20187;-78
2023/12/11 11:20:30;;;;;;;7.43;1.97;;;;;;;11.44;66.81;94552.94;4970158;28;20277;-77
2023/12/11 11:23:19;;;;;;;6.60;1.70;;;;;;;11.52;66.87;94566.66;4956976;28;20737;-77
2023/12/11 11:25:50;;;;;;;7.40;1.97;;;;;;;11.10;66.90;94554.19;4964049;28;20701;-79
2023/12/11 11:28:34;;;;;;;5.93;2.30;;;;;;;11.06;67.52;94553.75;4974561;28;20210;-80
2023/12/11 11:30:59;;;;;;;5.57;1.93;;;;;;;11.10;67.98;94579.38;4987382;28;20246;-78
2023/12/11 11:33:42;;;;;;;7.93;2.07;;;;;;;11.41;67.84;94579.28;4973326;28;20196;-79